Time;durP1;ratioP1;P1;durP2;ratioP2;P2;SDS_P1;SDS_P2;PMS_P1;PMS_P2;Temp;Humidity;BMP_temperature;BMP_pressure;BME280_temperature;BME280_humidity;BME280_pressure;Samples;Min_cycle;Max_cycle;Signal;HPM_P1;HPM_P2
2023/05/05 00:00:19;;;;;;;7.17;6.47;;;;;;;13.25;100.00;102002.91;2064072;28;20228;-58
2023/05/05 00:01:20;;;;;;;8.00;6.40;;;;;;;11.90;100.00;101779.69;2063414;28;20665;-58
2023/05/05 00:02:21;;;;;;;8.07;6.73;;;;;;;13.13;100.00;101975.66;2064055;28;20800;-58
2023/05/05 00:03:23;;;;;;;9.20;6.80;;;;;;;13.04;100.00;101973.38;2062749;28;20214;-58
2023/05/05 00:04:24;;;;;;;10.17;6.97;;;;;;;12.99;100.00;101953.56;2062743;28;20235;-58
2023/05/05 00:05:24;;;;;;;7.30;6.60;;;;;;;13.06;100.00;101975.75;2055728;28;20428;-58
2023/05/05 00:06:27;;;;;;;7.90;6.30;;;;;;;13.21;100.00;102002.19;2063184;28;20628;-58
2023/05/05 00:07:27;;;;;;;8.33;6.87;;;;;;;11.30;100.00;101698.16;2057027;28;20583;-58
2023/05/05 00:08:28;;;;;;;8.93;7.30;;;;;;;12.38;100.00;101869.25;2061980;28;20548;-58
2023/05/05 00:09:28;;;;;;;8.37;6.97;;;;;;;12.53;100.00;101889.31;2063839;28;20562;-58
2023/05/05 00:10:29;;;;;;;8.23;6.50;;;;;;;12.45;100.00;101908.06;2063681;28;20284;-58
2023/05/05 00:11:29;;;;;;;9.20;6.80;;;;;;;13.07;100.00;101978.09;2063697;28;20181;-58
2023/05/05 00:12:30;;;;;;;9.37;6.60;;;;;;;12.54;100.00;101897.25;2064687;28;20217;-58
2023/05/05 00:13:30;;;;;;;8.73;6.80;;;;;;;13.07;100.00;101969.75;2065806;28;20206;-58
2023/05/05 00:14:31;;;;;;;7.73;6.40;;;;;;;11.62;100.00;101751.41;2058118;28;20200;-58
2023/05/05 00:15:31;;;;;;;9.87;6.90;;;;;;;13.20;100.00;101981.13;2064740;28;20591;-58
2023/05/05 00:16:32;;;;;;;11.73;7.50;;;;;;;13.26;100.00;102035.91;2063364;28;20201;-57
2023/05/05 00:17:32;;;;;;;13.63;6.70;;;;;;;12.37;100.00;101870.44;2063921;28;20753;-58
2023/05/05 00:18:33;;;;;;;15.57;6.97;;;;;;;12.96;100.00;101940.50;2061234;28;20238;-58
2023/05/05 00:19:33;;;;;;;16.53;6.77;;;;;;;12.51;100.00;101861.16;2062834;28;20644;-58
2023/05/05 00:20:34;;;;;;;15.07;6.97;;;;;;;13.37;100.00;101980.88;2059231;28;20620;-57
2023/05/05 00:21:34;;;;;;;14.70;7.00;;;;;;;12.65;100.00;101870.09;2064557;28;20175;-57
2023/05/05 00:22:35;;;;;;;15.87;6.50;;;;;;;12.49;100.00;101858.78;2057409;28;20186;-58
2023/05/05 00:23:35;;;;;;;9.20;6.17;;;;;;;12.70;100.00;101877.22;2064797;28;20182;-58
2023/05/05 00:24:35;;;;;;;12.27;6.97;;;;;;;13.25;100.00;101961.16;2059453;28;20693;-58
2023/05/05 00:25:36;;;;;;;9.40;6.70;;;;;;;11.89;100.00;101755.09;2062843;28;20215;-58
2023/05/05 00:26:36;;;;;;;9.63;6.20;;;;;;;13.43;100.00;101981.22;2063901;28;20276;-58
2023/05/05 00:27:37;;;;;;;8.57;6.13;;;;;;;13.39;100.00;101978.47;2056612;28;20195;-58
2023/05/05 00:28:37;;;;;;;7.53;6.20;;;;;;;13.48;100.00;101983.53;2057860;28;20185;-59
2023/05/05 00:29:38;;;;;;;10.67;5.83;;;;;;;12.57;100.00;101853.91;2066028;28;20208;-58
2023/05/05 00:30:39;;;;;;;11.43;6.60;;;;;;;13.19;100.00;101940.56;2064270;28;20202;-58
2023/05/05 00:31:39;;;;;;;9.43;5.83;;;;;;;12.85;100.00;101898.06;2064305;28;20192;-58
2023/05/05 00:32:40;;;;;;;19.27;7.53;;;;;;;13.51;100.00;101991.81;2064596;28;20478;-61
2023/05/05 00:33:40;;;;;;;20.23;7.80;;;;;;;12.31;100.00;101804.59;2060982;28;20199;-61
2023/05/05 00:34:41;;;;;;;18.57;7.03;;;;;;;11.78;100.00;101746.09;2060762;28;20281;-60
2023/05/05 00:35:41;;;;;;;18.80;7.10;;;;;;;11.65;100.00;101711.72;2065592;28;20754;-61
2023/05/05 00:36:42;;;;;;;17.93;7.00;;;;;;;13.06;100.00;101936.78;2065049;28;20556;-61
2023/05/05 00:37:43;;;;;;;10.10;6.30;;;;;;;12.75;100.00;101858.03;2065798;28;20180;-61
2023/05/05 00:38:43;;;;;;;11.70;6.30;;;;;;;12.77;100.00;101852.88;2057903;28;20595;-61
2023/05/05 00:39:44;;;;;;;9.17;6.00;;;;;;;13.20;100.00;101933.78;2068887;28;20231;-61
2023/05/05 00:40:44;;;;;;;11.37;5.67;;;;;;;12.75;100.00;101860.06;2066637;28;20242;-61
2023/05/05 00:41:44;;;;;;;9.83;5.83;;;;;;;12.40;100.00;101816.00;2069072;28;20190;-61
2023/05/05 00:42:46;;;;;;;10.03;6.37;;;;;;;13.53;100.00;101991.41;2071985;28;20240;-60
2023/05/05 00:43:47;;;;;;;7.70;6.10;;;;;;;11.68;100.00;101703.34;2073794;28;20204;-61
2023/05/05 00:44:47;;;;;;;9.67;6.23;;;;;;;12.72;100.00;101881.16;2073607;28;20426;-61
2023/05/05 00:45:58;;;;;;;7.87;5.90;;;;;;;13.58;100.00;101988.94;2073086;28;20281;-60
2023/05/05 00:46:59;;;;;;;8.50;5.83;;;;;;;13.50;100.00;101987.47;2066146;28;20266;-61
2023/05/05 00:48:00;;;;;;;8.80;5.77;;;;;;;11.93;100.00;101791.97;2073937;28;20414;-60
2023/05/05 00:49:01;;;;;;;9.57;6.17;;;;;;;12.34;100.00;101787.09;2073717;28;20283;-61
2023/05/05 00:50:08;;;;;;;8.73;5.47;;;;;;;13.65;100.00;101980.47;2066903;28;20458;-61
2023/05/05 00:51:09;;;;;;;8.63;5.47;;;;;;;12.37;100.00;101789.84;2064787;28;20199;-60
2023/05/05 00:52:10;;;;;;;9.73;6.20;;;;;;;13.06;100.00;101892.25;2070520;28;20974;-60
2023/05/05 00:53:10;;;;;;;10.07;6.30;;;;;;;12.81;100.00;101892.53;2072533;28;20768;-60
2023/05/05 00:54:11;;;;;;;9.73;5.93;;;;;;;12.38;100.00;101776.69;2070571;28;20835;-61
2023/05/05 00:55:12;;;;;;;12.00;6.03;;;;;;;12.89;100.00;101865.41;2067438;28;20188;-60
2023/05/05 00:56:13;;;;;;;9.70;6.10;;;;;;;12.78;100.00;101831.38;2073214;28;20612;-61
2023/05/05 00:57:13;;;;;;;10.53;6.30;;;;;;;12.53;100.00;101817.81;2073885;28;20187;-61
2023/05/05 00:58:14;;;;;;;9.20;6.00;;;;;;;13.01;100.00;101896.28;2065723;28;20530;-60
2023/05/05 00:59:14;;;;;;;7.57;5.97;;;;;;;13.69;100.00;101978.41;2072189;28;20229;-61
2023/05/05 01:00:15;;;;;;;7.63;6.13;;;;;;;11.58;100.00;101665.34;2073481;28;20190;-61
2023/05/05 01:01:16;;;;;;;8.47;5.70;;;;;;;13.09;100.00;101875.50;2068401;28;20668;-60
2023/05/05 01:02:17;;;;;;;6.67;5.27;;;;;;;12.98;100.00;101860.97;2068506;28;20203;-60
2023/05/05 01:03:18;;;;;;;7.90;5.40;;;;;;;13.15;100.00;101896.09;2072454;28;20187;-60
2023/05/05 01:04:18;;;;;;;7.53;5.90;;;;;;;12.75;100.00;101821.13;2072124;28;20437;-60
2023/05/05 01:05:21;;;;;;;6.30;5.67;;;;;;;12.90;100.00;101862.22;2065596;28;20563;-61
2023/05/05 01:06:46;;;;;;;10.17;5.43;;;;;;;13.73;100.00;101981.94;2073046;28;20675;-61
2023/05/05 01:08:10;;;;;;;11.80;6.10;;;;;;;13.73;100.00;101978.38;2071190;28;20435;-60
2023/05/05 01:09:32;;;;;;;11.47;6.00;;;;;;;13.70;100.00;101980.00;2073244;28;20519;-60
2023/05/05 01:10:45;;;;;;;8.20;5.20;;;;;;;13.56;100.00;101965.47;2073268;28;20448;-60
2023/05/05 01:12:32;;;;;;;5.90;5.30;;;;;;;13.45;100.00;101995.50;2067432;28;20952;-60
2023/05/05 01:13:46;;;;;;;6.47;5.07;;;;;;;12.97;100.00;101878.84;2065314;28;20422;-61
2023/05/05 01:15:00;;;;;;;7.57;5.57;;;;;;;13.68;100.00;101979.63;2065243;28;20909;-61
2023/05/05 01:16:13;;;;;;;6.23;5.13;;;;;;;13.49;100.00;101952.47;2064946;28;20488;-60
2023/05/05 01:17:19;;;;;;;7.77;5.60;;;;;;;12.73;100.00;101862.44;2072419;28;20546;-60
2023/05/05 01:18:45;;;;;;;7.00;5.30;;;;;;;13.68;100.00;101985.19;2072639;28;20554;-60
2023/05/05 01:20:07;;;;;;;10.47;5.20;;;;;;;13.73;100.00;101983.94;2073395;28;20438;-61
2023/05/05 01:21:18;;;;;;;10.27;5.70;;;;;;;13.74;100.00;101983.50;2072898;28;20489;-60
2023/05/05 01:22:26;;;;;;;9.53;4.90;;;;;;;13.61;100.00;101957.47;2065852;28;20789;-60
2023/05/05 01:23:47;;;;;;;9.50;4.93;;;;;;;13.77;100.00;101979.09;2071273;28;20462;-60
2023/05/05 01:25:25;;;;;;;8.37;5.03;;;;;;;13.19;100.00;101899.63;2073103;28;20409;-61
2023/05/05 01:26:58;;;;;;;6.73;5.57;;;;;;;13.75;100.00;101975.94;2065176;28;20805;-60
2023/05/05 01:28:18;;;;;;;9.73;5.00;;;;;;;13.79;100.00;101980.25;2071783;28;20544;-60
2023/05/05 01:29:47;;;;;;;7.00;5.03;;;;;;;13.07;100.00;101872.34;2065529;28;20595;-60
2023/05/05 01:31:15;;;;;;;8.70;5.50;;;;;;;13.84;100.00;101982.56;2066402;28;20662;-61
2023/05/05 01:32:21;;;;;;;9.53;5.20;;;;;;;13.49;100.00;101926.63;2068743;28;20549;-61
2023/05/05 01:33:26;;;;;;;9.03;5.00;;;;;;;13.01;100.00;101862.88;2067486;28;20898;-60
2023/05/05 01:34:32;;;;;;;8.80;5.13;;;;;;;13.80;100.00;101972.69;2072785;28;20475;-61
2023/05/05 01:35:44;;;;;;;9.07;5.10;;;;;;;13.23;100.00;101883.63;2070376;28;20413;-61
2023/05/05 01:36:51;;;;;;;8.87;5.30;;;;;;;13.15;100.00;101882.16;2067897;28;20454;-61
2023/05/05 01:38:04;;;;;;;10.40;5.17;;;;;;;13.16;100.00;101888.53;2069905;28;20485;-60
2023/05/05 01:39:08;;;;;;;6.77;5.10;;;;;;;13.46;100.00;101933.00;2067660;28;20442;-62
2023/05/05 01:40:11;;;;;;;7.43;5.47;;;;;;;13.23;100.00;101911.47;2072553;28;20442;-61
2023/05/05 01:41:19;;;;;;;7.33;5.50;;;;;;;13.73;100.00;101975.59;2071859;28;20439;-60
2023/05/05 01:42:22;;;;;;;8.53;5.50;;;;;;;12.73;100.00;101831.84;2072751;28;20420;-61
2023/05/05 01:43:29;;;;;;;9.93;5.23;;;;;;;13.45;100.00;101968.44;2072658;28;20910;-61
2023/05/05 01:44:32;;;;;;;15.00;5.77;;;;;;;12.98;100.00;101866.53;2073113;28;20411;-60
2023/05/05 01:45:36;;;;;;;16.63;6.27;;;;;;;13.67;100.00;101969.69;2073288;28;20432;-61
2023/05/05 01:46:37;;;;;;;19.00;6.13;;;;;;;13.31;100.00;101938.00;2065422;28;20428;-60
2023/05/05 01:47:39;;;;;;;15.37;5.83;;;;;;;13.40;100.00;101954.19;2072525;28;20440;-60
2023/05/05 01:48:41;;;;;;;13.43;5.37;;;;;;;13.45;100.00;101959.28;2072204;28;20237;-62
2023/05/05 01:49:46;;;;;;;14.53;6.13;;;;;;;13.40;100.00;101984.81;2072565;28;20561;-61
2023/05/05 01:50:48;;;;;;;10.87;5.50;;;;;;;12.89;100.00;101865.41;2072722;28;20472;-61
2023/05/05 01:51:50;;;;;;;16.43;6.20;;;;;;;12.50;100.00;101818.66;2071822;28;20455;-60
2023/05/05 01:52:52;;;;;;;19.93;6.23;;;;;;;13.53;100.00;101963.56;2073964;28;20886;-60
2023/05/05 01:53:56;;;;;;;12.73;5.90;;;;;;;13.16;100.00;101902.47;2072945;28;20430;-60
2023/05/05 01:54:58;;;;;;;16.20;5.63;;;;;;;12.24;100.00;101758.22;2073216;28;20436;-61
2023/05/05 01:56:00;;;;;;;11.97;5.37;;;;;;;13.20;100.00;101906.75;2072393;28;20422;-60
2023/05/05 01:57:03;;;;;;;10.70;5.57;;;;;;;13.35;100.00;101924.03;2065370;28;20472;-60
2023/05/05 01:58:06;;;;;;;10.03;5.57;;;;;;;13.55;100.00;101958.34;2072457;28;20450;-61
2023/05/05 01:59:07;;;;;;;13.00;5.33;;;;;;;13.54;100.00;101952.00;2072145;28;20480;-60
2023/05/05 02:00:09;;;;;;;9.30;5.60;;;;;;;12.75;100.00;101837.81;2073191;28;20440;-60
2023/05/05 02:01:11;;;;;;;11.07;5.60;;;;;;;11.14;100.00;101576.66;2067299;28;20900;-61
2023/05/05 02:02:13;;;;;;;10.60;5.40;;;;;;;13.21;100.00;101905.53;2069008;28;20474;-61
2023/05/05 02:03:16;;;;;;;11.13;5.20;;;;;;;12.07;100.00;101725.09;2068939;28;20993;-60
2023/05/05 02:04:21;;;;;;;12.03;5.70;;;;;;;13.47;100.00;101954.88;2067196;28;20462;-60
2023/05/05 02:05:23;;;;;;;8.27;5.10;;;;;;;13.37;100.00;101943.91;2071301;28;20792;-60
2023/05/05 02:06:25;;;;;;;9.17;5.40;;;;;;;13.43;100.00;101947.78;2065605;28;20464;-61
2023/05/05 02:07:27;;;;;;;8.50;4.97;;;;;;;13.44;100.00;101952.94;2073444;28;20433;-61
2023/05/05 02:08:29;;;;;;;8.50;5.30;;;;;;;12.88;100.00;101877.75;2065256;28;20421;-60
2023/05/05 02:09:31;;;;;;;11.53;5.53;;;;;;;13.41;100.00;101975.25;2072156;28;20575;-61
2023/05/05 02:10:31;;;;;;;9.97;5.23;;;;;;;13.06;100.00;101911.75;2072886;28;20446;-60
2023/05/05 02:11:32;;;;;;;8.40;5.53;;;;;;;13.31;100.00;101960.28;2067367;28;20455;-61
2023/05/05 02:12:35;;;;;;;6.90;5.40;;;;;;;13.29;100.00;101954.34;2067829;28;20625;-61
2023/05/05 02:13:37;;;;;;;6.57;5.30;;;;;;;13.24;100.00;101954.81;2071758;28;20283;-60
2023/05/05 02:14:39;;;;;;;6.00;5.40;;;;;;;13.29;100.00;101956.34;2061611;28;20432;-61
2023/05/05 02:15:42;;;;;;;6.87;5.20;;;;;;;13.06;100.00;101917.31;2065389;28;20504;-60
2023/05/05 02:16:43;;;;;;;6.93;5.50;;;;;;;13.15;100.00;101925.91;2072220;28;20833;-61
2023/05/05 02:17:45;;;;;;;7.60;5.90;;;;;;;12.60;100.00;101845.53;2065382;28;20913;-60
2023/05/05 02:18:46;;;;;;;6.13;5.53;;;;;;;13.29;100.00;101940.44;2064777;28;20449;-60
2023/05/05 02:19:51;;;;;;;9.13;6.17;;;;;;;12.45;100.00;101812.78;2071540;28;20953;-60
2023/05/05 02:20:52;;;;;;;6.93;5.67;;;;;;;13.19;100.00;101935.81;2066377;28;20483;-60
2023/05/05 02:21:52;;;;;;;6.17;5.57;;;;;;;13.19;100.00;101938.59;2069387;28;20440;-61
2023/05/05 02:22:53;;;;;;;6.53;5.77;;;;;;;12.65;100.00;101870.09;2071240;28;20248;-60
2023/05/05 02:23:53;;;;;;;6.90;5.57;;;;;;;13.18;100.00;101952.91;2072416;28;20702;-61
2023/05/05 02:24:54;;;;;;;6.57;5.37;;;;;;;11.76;100.00;101748.47;2071197;28;20181;-61
2023/05/05 02:26:08;;;;;;;6.73;5.90;;;;;;;12.09;100.00;101769.94;2065001;28;20571;-61
2023/05/05 02:27:10;;;;;;;6.40;5.70;;;;;;;11.82;100.00;101721.81;2071752;28;20206;-60
2023/05/05 02:28:17;;;;;;;7.27;6.00;;;;;;;12.52;100.00;101832.13;2064577;28;20482;-61
2023/05/05 02:29:31;;;;;;;6.07;5.47;;;;;;;12.42;100.00;101833.06;2073313;28;20501;-60
2023/05/05 02:30:34;;;;;;;6.73;6.00;;;;;;;12.62;100.00;101884.06;2065448;28;20534;-60
2023/05/05 02:31:48;;;;;;;7.73;6.00;;;;;;;12.26;100.00;101803.09;2072551;28;20930;-60
2023/05/05 02:33:10;;;;;;;7.53;6.20;;;;;;;13.14;100.00;101938.25;2063877;28;20477;-60
2023/05/05 02:34:15;;;;;;;6.80;6.10;;;;;;;12.64;100.00;101854.63;2066089;28;20430;-61
2023/05/05 02:35:31;;;;;;;8.07;6.27;;;;;;;12.96;100.00;101912.66;2071990;28;20484;-60
2023/05/05 02:36:37;;;;;;;8.03;5.93;;;;;;;12.54;100.00;101838.06;2072239;28;20864;-60
2023/05/05 02:37:39;;;;;;;7.43;6.40;;;;;;;12.93;100.00;101911.47;2072632;28;20502;-61
2023/05/05 02:38:43;;;;;;;7.00;5.90;;;;;;;11.54;100.00;101713.78;2071882;28;20478;-61
2023/05/05 02:39:57;;;;;;;6.70;6.00;;;;;;;13.07;100.00;101930.78;2071927;28;21037;-60
2023/05/05 02:41:00;;;;;;;9.87;6.00;;;;;;;11.74;100.00;101748.88;2072416;28;20477;-60
2023/05/05 02:42:03;;;;;;;7.20;6.10;;;;;;;11.70;100.00;101722.38;2071801;28;20431;-60
2023/05/05 02:43:06;;;;;;;9.53;6.10;;;;;;;13.05;100.00;101933.19;2072206;28;20806;-61
2023/05/05 02:44:11;;;;;;;7.23;6.30;;;;;;;12.17;100.00;101813.09;2073015;28;20478;-60
2023/05/05 02:45:16;;;;;;;9.87;6.50;;;;;;;11.27;100.00;101674.03;2072579;28;20459;-60
2023/05/05 02:46:16;;;;;;;8.33;6.30;;;;;;;11.19;100.00;101639.22;2072490;28;20874;-60
2023/05/05 02:47:17;;;;;;;9.27;6.53;;;;;;;12.98;100.00;101926.94;2072796;28;20555;-60
2023/05/05 02:48:17;;;;;;;7.90;6.43;;;;;;;12.53;100.00;101881.78;2072610;28;20693;-62
2023/05/05 02:49:18;;;;;;;8.23;6.47;;;;;;;12.58;100.00;101872.19;2069265;28;20656;-60
2023/05/05 02:50:19;;;;;;;11.67;6.87;;;;;;;12.60;100.00;101875.34;2064392;28;20191;-60
2023/05/05 02:51:19;;;;;;;6.50;5.83;;;;;;;12.94;100.00;101917.81;2064784;28;20190;-60
2023/05/05 02:52:20;;;;;;;8.63;5.80;;;;;;;11.38;100.00;101664.38;2071765;28;20182;-61
2023/05/05 02:53:25;;;;;;;8.37;6.50;;;;;;;11.57;100.00;101696.28;2071609;28;20196;-61
2023/05/05 02:54:26;;;;;;;8.50;6.27;;;;;;;12.88;100.00;101923.06;2072403;28;20202;-60
2023/05/05 02:55:41;;;;;;;9.17;6.07;;;;;;;12.19;100.00;101830.94;2072150;28;20530;-59
2023/05/05 02:56:46;;;;;;;7.43;6.03;;;;;;;12.19;100.00;101813.50;2072000;28;20513;-60
2023/05/05 02:58:03;;;;;;;7.53;6.30;;;;;;;12.13;100.00;101801.22;2065837;28;21000;-60
2023/05/05 02:59:18;;;;;;;9.27;6.80;;;;;;;12.75;100.00;101913.69;2072508;28;20835;-60
2023/05/05 03:00:25;;;;;;;8.17;6.57;;;;;;;12.71;100.00;101912.16;2064882;28;20424;-61
2023/05/05 03:01:45;;;;;;;7.27;6.57;;;;;;;12.69;100.00;101923.69;2064202;28;20432;-60
2023/05/05 03:03:14;;;;;;;8.23;7.30;;;;;;;12.65;100.00;101925.72;2064534;28;20420;-60
2023/05/05 03:04:38;;;;;;;8.30;7.20;;;;;;;12.60;100.00;101919.84;2072075;28;20483;-61
2023/05/05 03:05:50;;;;;;;7.67;6.80;;;;;;;11.48;100.00;101757.06;2066874;28;20538;-61
2023/05/05 03:06:55;;;;;;;8.10;7.30;;;;;;;12.39;100.00;101886.69;2070047;28;20479;-61
2023/05/05 03:08:07;;;;;;;10.47;6.93;;;;;;;11.75;100.00;101814.34;2072699;28;20430;-60
2023/05/05 03:09:12;;;;;;;12.07;7.43;;;;;;;12.52;100.00;101921.91;2066773;28;21020;-61
2023/05/05 03:10:17;;;;;;;11.63;7.17;;;;;;;11.88;100.00;101823.72;2069644;28;20483;-60
2023/05/05 03:11:26;;;;;;;8.87;7.17;;;;;;;12.53;100.00;101917.94;2067610;28;20994;-60
2023/05/05 03:12:35;;;;;;;11.10;7.43;;;;;;;12.21;100.00;101886.91;2068271;28;20459;-60
2023/05/05 03:13:39;;;;;;;14.47;7.73;;;;;;;12.46;100.00;101951.34;2072244;28;20964;-60
2023/05/05 03:14:42;;;;;;;12.93;7.57;;;;;;;12.46;100.00;101925.56;2072245;28;20441;-60
2023/05/05 03:15:47;;;;;;;13.83;7.60;;;;;;;12.09;100.00;101881.09;2072250;28;20452;-60
2023/05/05 03:16:48;;;;;;;12.33;7.70;;;;;;;11.84;100.00;101867.41;2077343;28;20416;-60
2023/05/05 03:17:51;;;;;;;9.37;7.27;;;;;;;12.26;100.00;101916.22;2073172;28;20426;-60
2023/05/05 03:18:53;;;;;;;11.07;7.60;;;;;;;12.36;100.00;101935.59;2072209;28;20420;-59
2023/05/05 03:19:55;;;;;;;11.77;7.73;;;;;;;12.13;100.00;101909.59;2073001;28;20426;-60
2023/05/05 03:20:55;;;;;;;10.07;7.83;;;;;;;11.90;100.00;101888.03;2063882;28;20468;-61
2023/05/05 03:21:56;;;;;;;8.73;7.47;;;;;;;12.02;100.00;101895.84;2070051;28;20447;-60
2023/05/05 03:22:59;;;;;;;10.17;7.30;;;;;;;11.06;100.00;101746.34;2071000;28;20238;-60
2023/05/05 03:24:10;;;;;;;8.93;7.33;;;;;;;11.41;100.00;101799.56;2071600;28;20199;-60
2023/05/05 03:25:10;;;;;;;8.03;7.23;;;;;;;12.32;100.00;101934.84;2072539;28;20426;-60
2023/05/05 03:26:10;;;;;;;13.80;7.33;;;;;;;11.87;100.00;101868.59;2067080;28;20999;-61
2023/05/05 03:27:11;;;;;;;10.47;7.57;;;;;;;11.98;100.00;101897.84;2066543;28;20204;-60
2023/05/05 03:28:14;;;;;;;10.40;7.47;;;;;;;12.30;100.00;101940.00;2072269;28;20606;-61
2023/05/05 03:29:15;;;;;;;11.33;7.67;;;;;;;12.31;100.00;101940.81;2072670;28;20191;-60
2023/05/05 03:30:15;;;;;;;14.50;8.00;;;;;;;11.64;100.00;101858.06;2072740;28;20456;-60
2023/05/05 03:31:17;;;;;;;16.50;8.37;;;;;;;10.91;100.00;101744.88;2071015;28;20592;-60
2023/05/05 03:32:17;;;;;;;15.50;8.40;;;;;;;10.77;100.00;101715.25;2071611;28;20676;-61
2023/05/05 03:33:18;;;;;;;17.87;8.50;;;;;;;9.97;100.00;101594.66;2065699;28;20506;-60
2023/05/05 03:34:18;;;;;;;19.40;8.23;;;;;;;12.22;100.00;101937.72;2068226;28;20191;-60
2023/05/05 03:35:19;;;;;;;17.00;8.70;;;;;;;12.09;100.00;101915.19;2071726;28;20203;-60
2023/05/05 03:36:19;;;;;;;18.77;8.70;;;;;;;11.27;100.00;101832.97;2069818;28;20682;-60
2023/05/05 03:37:20;;;;;;;19.83;8.47;;;;;;;11.82;100.00;101874.56;2064912;28;20243;-61
2023/05/05 03:38:20;;;;;;;19.80;8.70;;;;;;;11.77;100.00;101875.81;2071556;28;20187;-61
2023/05/05 03:39:20;;;;;;;22.77;9.00;;;;;;;12.12;100.00;101919.16;2072645;28;20311;-60
2023/05/05 03:40:22;;;;;;;20.23;8.83;;;;;;;11.60;100.00;101828.78;2065121;28;20680;-60
2023/05/05 03:41:23;;;;;;;20.90;8.70;;;;;;;11.77;100.00;101894.47;2070022;28;20201;-60
2023/05/05 03:42:24;;;;;;;22.43;9.23;;;;;;;11.90;100.00;101892.78;2071541;28;20503;-61
2023/05/05 03:43:24;;;;;;;18.63;8.60;;;;;;;12.26;100.00;101947.59;2072027;28;20953;-61
2023/05/05 03:44:24;;;;;;;26.10;9.50;;;;;;;11.93;100.00;101881.63;2071887;28;20190;-60
2023/05/05 03:45:25;;;;;;;23.43;9.17;;;;;;;12.30;100.00;101953.91;2072412;28;20462;-60
2023/05/05 03:46:25;;;;;;;26.50;9.40;;;;;;;11.25;100.00;101793.75;2070541;28;20172;-60
2023/05/05 03:47:26;;;;;;;29.30;9.37;;;;;;;12.15;100.00;101921.88;2064648;28;20372;-60
2023/05/05 03:48:26;;;;;;;23.77;9.20;;;;;;;11.11;100.00;101749.47;2071262;28;20202;-60
2023/05/05 03:49:26;;;;;;;29.60;9.27;;;;;;;11.21;100.00;101783.84;2066206;28;20184;-61
2023/05/05 03:50:27;;;;;;;22.67;8.67;;;;;;;11.37;100.00;101792.47;2069401;28;20210;-61
2023/05/05 03:51:27;;;;;;;20.83;8.63;;;;;;;12.02;100.00;101887.50;2070086;28;20196;-61
2023/05/05 03:52:28;;;;;;;17.83;8.03;;;;;;;12.38;100.00;101944.31;2069939;28;20501;-60
2023/05/05 03:53:28;;;;;;;18.10;8.10;;;;;;;12.08;100.00;101896.16;2072196;28;20170;-65
2023/05/05 03:54:28;;;;;;;18.37;7.57;;;;;;;11.29;100.00;101768.75;2072752;28;20171;-65
2023/05/05 03:55:29;;;;;;;13.43;8.30;;;;;;;12.45;100.00;101951.78;2073301;28;20188;-65
2023/05/05 03:56:29;;;;;;;14.77;7.50;;;;;;;12.46;100.00;101947.81;2065153;28;20651;-64
2023/05/05 03:57:30;;;;;;;14.53;8.20;;;;;;;12.48;100.00;101951.75;2070793;28;20259;-66
2023/05/05 03:58:30;;;;;;;15.40;7.53;;;;;;;12.50;100.00;101946.53;2073554;28;20223;-65
2023/05/05 03:59:31;;;;;;;11.40;7.60;;;;;;;12.50;100.00;101948.56;2073361;28;20655;-66
2023/05/05 04:00:31;;;;;;;15.77;7.63;;;;;;;12.53;100.00;101953.28;2073377;28;20617;-65
2023/05/05 04:01:31;;;;;;;15.43;7.97;;;;;;;12.46;100.00;101948.56;2072955;28;20661;-61
2023/05/05 04:02:32;;;;;;;18.00;7.93;;;;;;;12.52;100.00;101951.69;2071908;28;20211;-60
2023/05/05 04:03:32;;;;;;;11.47;7.33;;;;;;;12.49;100.00;101946.94;2065096;28;20278;-61
2023/05/05 04:04:33;;;;;;;15.40;7.47;;;;;;;12.55;100.00;101953.66;2070055;28;20640;-61
2023/05/05 04:05:33;;;;;;;19.30;7.97;;;;;;;12.56;100.00;101978.25;2067282;28;20267;-60
2023/05/05 04:06:33;;;;;;;15.23;8.07;;;;;;;12.57;100.00;101959.59;2072186;28;20633;-60
2023/05/05 04:07:34;;;;;;;14.87;7.77;;;;;;;12.60;100.00;101954.00;2069312;28;20288;-60
2023/05/05 04:08:34;;;;;;;13.50;7.60;;;;;;;12.62;100.00;101959.94;2065652;28;20180;-61
2023/05/05 04:09:35;;;;;;;15.43;7.80;;;;;;;12.63;100.00;101958.72;2079217;28;20171;-60
2023/05/05 04:10:36;;;;;;;16.07;8.57;;;;;;;12.63;100.00;101955.16;2072629;28;20177;-60
2023/05/05 04:11:36;;;;;;;13.37;7.20;;;;;;;12.66;100.00;101962.69;2070826;28;20736;-62
2023/05/05 04:12:36;;;;;;;11.17;7.30;;;;;;;12.66;100.00;101957.13;2070395;28;20688;-60
2023/05/05 04:13:37;;;;;;;15.60;8.97;;;;;;;12.66;100.00;101962.69;2072412;28;20652;-65
2023/05/05 04:14:37;;;;;;;11.90;7.93;;;;;;;12.67;100.00;101961.47;2071066;28;20621;-66
2023/05/05 04:15:43;;;;;;;18.53;8.17;;;;;;;12.07;100.00;101861.25;2068693;28;20280;-62
2023/05/05 04:16:43;;;;;;;14.07;8.33;;;;;;;12.71;100.00;101963.00;2066466;28;20158;-63
2023/05/05 04:17:44;;;;;;;15.27;7.90;;;;;;;12.73;100.00;101960.59;2072394;28;20412;-63
2023/05/05 04:18:44;;;;;;;13.80;7.47;;;;;;;12.74;100.00;101967.75;2073600;28;20181;-65
2023/05/05 04:19:45;;;;;;;12.43;7.30;;;;;;;12.68;100.00;101952.72;2072293;28;20258;-66
2023/05/05 04:20:46;;;;;;;14.37;7.87;;;;;;;11.92;100.00;101841.16;2072373;28;20184;-66
2023/05/05 04:21:46;;;;;;;11.73;7.53;;;;;;;12.74;100.00;101961.38;2066572;28;20197;-64
2023/05/05 04:22:47;;;;;;;13.70;7.47;;;;;;;12.78;100.00;101967.69;2066814;28;20442;-64
2023/05/05 04:23:47;;;;;;;20.70;9.07;;;;;;;12.78;100.00;101964.91;2063281;28;20289;-63
2023/05/05 04:24:48;;;;;;;21.37;9.50;;;;;;;12.76;100.00;101968.09;2070689;28;20737;-65
2023/05/05 04:25:48;;;;;;;25.23;9.70;;;;;;;12.77;100.00;101968.91;2071597;28;20668;-65
2023/05/05 04:26:49;;;;;;;23.80;8.73;;;;;;;12.76;100.00;101984.78;2072215;28;20381;-63
2023/05/05 04:27:49;;;;;;;21.33;9.40;;;;;;;12.80;100.00;101971.63;2067501;28;20196;-64
2023/05/05 04:28:50;;;;;;;31.47;10.80;;;;;;;12.80;100.00;101963.28;2072451;28;20595;-65
2023/05/05 04:29:51;;;;;;;24.27;9.50;;;;;;;12.34;100.00;101899.06;2071395;28;20228;-65
2023/05/05 04:30:51;;;;;;;20.97;8.83;;;;;;;12.82;100.00;101965.66;2071033;28;20203;-64
2023/05/05 04:31:52;;;;;;;17.00;8.70;;;;;;;12.84;100.00;101972.41;2071474;28;20182;-61
2023/05/05 04:32:53;;;;;;;24.20;8.80;;;;;;;12.88;100.00;101989.03;2065332;28;20762;-63
2023/05/05 04:33:53;;;;;;;27.40;8.93;;;;;;;11.98;100.00;101822.03;2072565;28;20796;-64
2023/05/05 04:34:54;;;;;;;42.13;11.20;;;;;;;12.95;100.00;101967.50;2071737;28;20593;-62
2023/05/05 04:35:55;;;;;;;49.27;10.77;;;;;;;12.98;100.00;101969.47;2071188;28;20190;-65
2023/05/05 04:36:55;;;;;;;49.30;10.80;;;;;;;13.04;100.00;101964.22;2072017;28;20204;-65
2023/05/05 04:37:56;;;;;;;21.40;8.07;;;;;;;12.92;100.00;101931.38;2070673;28;20236;-64
2023/05/05 04:38:56;;;;;;;16.00;8.00;;;;;;;13.14;100.00;101966.88;2069532;28;20256;-65
2023/05/05 04:39:56;;;;;;;14.60;8.20;;;;;;;13.16;100.00;101955.34;2072262;28;20315;-65
2023/05/05 04:40:57;;;;;;;13.50;8.20;;;;;;;13.23;100.00;101963.59;2071911;28;20188;-64
2023/05/05 04:41:57;;;;;;;11.80;9.40;;;;;;;13.24;100.00;101965.97;2071511;28;20646;-66
2023/05/05 04:42:58;;;;;;;9.50;8.07;;;;;;;13.25;100.00;101963.94;2070148;28;20173;-61
2023/05/05 04:43:58;;;;;;;9.37;7.90;;;;;;;13.28;100.00;101961.09;2064421;28;20225;-62
2023/05/05 04:44:58;;;;;;;8.23;5.80;;;;;;;13.11;100.00;101934.31;2069641;28;20250;-62
2023/05/05 04:45:59;;;;;;;9.53;6.77;;;;;;;13.32;100.00;101959.06;2070655;28;20216;-63
2023/05/05 04:46:59;;;;;;;7.20;6.30;;;;;;;13.35;100.00;101960.22;2067084;28;20183;-63
2023/05/05 04:48:00;;;;;;;6.83;6.13;;;;;;;13.38;100.00;101964.97;2063548;28;20210;-64
2023/05/05 04:49:03;;;;;;;8.60;6.03;;;;;;;13.40;100.00;101970.91;2066343;28;20192;-62
2023/05/05 04:50:04;;;;;;;9.87;7.10;;;;;;;13.41;100.00;101966.91;2071901;28;20180;-61
2023/05/05 04:51:05;;;;;;;13.07;8.97;;;;;;;13.25;100.00;101936.09;2069156;28;20511;-62